Terminal Aerodrome Forecast
Issued by NWS Mt. Holly, NJ

Home | Current Version | Previous Version | Text Only | Print | Product List | Glossary On
Versions: 1 2 3 4 5 6 7 8 9 10 11 12
000
FTUS41 KPHI 221127
TAFTTN
TAF
KTTN 221127Z 2212/2312 VRB02KT P6SM SCT250
     FM221800 16005KT P6SM BKN250
     FM230600 VRB03KT 2SM BR SCT010 BKN250
     FM231100 VRB03KT 4SM BR BKN010=

USA.gov is the U.S. government's official web portal to all federal, state and local government web resources and services.